sensor_id;sensor_type;location;lat;lon;timestamp;temperature;humidity
55436;DHT22;41307;53.142;6.430;2022-10-19T00:01:50;10.70;99.90
55436;DHT22;41307;53.142;6.430;2022-10-19T00:04:16;10.70;99.90
55436;DHT22;41307;53.142;6.430;2022-10-19T00:06:43;10.70;99.90
55436;DHT22;41307;53.142;6.430;2022-10-19T00:09:13;10.60;99.90
55436;DHT22;41307;53.142;6.430;2022-10-19T00:11:41;11.30;99.90
55436;DHT22;41307;53.142;6.430;2022-10-19T00:14:09;10.70;99.90
55436;DHT22;41307;53.142;6.430;2022-10-19T00:16:37;10.70;99.90
55436;DHT22;41307;53.142;6.430;2022-10-19T00:19:06;10.70;99.90
55436;DHT22;41307;53.142;6.430;2022-10-19T00:21:32;11.00;99.90
55436;DHT22;41307;53.142;6.430;2022-10-19T00:23:58;10.70;99.90
55436;DHT22;41307;53.142;6.430;2022-10-19T00:26:24;10.70;99.90
55436;DHT22;41307;53.142;6.430;2022-10-19T00:28:52;11.40;99.90
55436;DHT22;41307;53.142;6.430;2022-10-19T00:31:19;11.30;99.90
55436;DHT22;41307;53.142;6.430;2022-10-19T00:33:45;10.90;99.90
55436;DHT22;41307;53.142;6.430;2022-10-19T00:36:20;10.70;99.90
55436;DHT22;41307;53.142;6.430;2022-10-19T00:38:46;10.70;99.90
55436;DHT22;41307;53.142;6.430;2022-10-19T00:41:13;11.50;99.90
55436;DHT22;41307;53.142;6.430;2022-10-19T00:43:59;10.60;99.90
55436;DHT22;41307;53.142;6.430;2022-10-19T00:46:27;10.70;99.90
55436;DHT22;41307;53.142;6.430;2022-10-19T00:48:58;10.70;99.90
55436;DHT22;41307;53.142;6.430;2022-10-19T00:51:26;10.70;99.90
55436;DHT22;41307;53.142;6.430;2022-10-19T00:53:53;10.70;99.90
55436;DHT22;41307;53.142;6.430;2022-10-19T00:56:19;10.70;99.90
55436;DHT22;41307;53.142;6.430;2022-10-19T00:58:45;10.70;99.90
55436;DHT22;41307;53.142;6.430;2022-10-19T01:01:15;10.70;99.90
55436;DHT22;41307;53.142;6.430;2022-10-19T01:03:42;10.70;99.90
55436;DHT22;41307;53.142;6.430;2022-10-19T01:06:09;10.70;99.90
55436;DHT22;41307;53.142;6.430;2022-10-19T01:08:35;11.10;99.90
55436;DHT22;41307;53.142;6.430;2022-10-19T01:19:59;10.80;99.90
55436;DHT22;41307;53.142;6.430;2022-10-19T01:22:49;10.80;99.90
55436;DHT22;41307;53.142;6.430;2022-10-19T01:36:32;10.90;99.90
55436;DHT22;41307;53.142;6.430;2022-10-19T01:39:16;10.90;99.90
55436;DHT22;41307;53.142;6.430;2022-10-19T01:41:55;10.90;99.90
55436;DHT22;41307;53.142;6.430;2022-10-19T01:46:55;11.00;99.90
55436;DHT22;41307;53.142;6.430;2022-10-19T01:49:29;11.50;99.90
55436;DHT22;41307;53.142;6.430;2022-10-19T01:52:04;10.90;99.90
55436;DHT22;41307;53.142;6.430;2022-10-19T01:54:35;10.90;99.90
55436;DHT22;41307;53.142;6.430;2022-10-19T01:57:05;11.30;99.90
55436;DHT22;41307;53.142;6.430;2022-10-19T01:59:32;10.90;99.90
55436;DHT22;41307;53.142;6.430;2022-10-19T02:01:59;10.90;99.90
55436;DHT22;41307;53.142;6.430;2022-10-19T02:04:26;10.90;99.90
55436;DHT22;41307;53.142;6.430;2022-10-19T02:06:54;10.90;99.90
55436;DHT22;41307;53.142;6.430;2022-10-19T02:09:20;10.80;99.90
55436;DHT22;41307;53.142;6.430;2022-10-19T02:11:50;10.90;99.90
55436;DHT22;41307;53.142;6.430;2022-10-19T02:14:18;10.90;99.90
55436;DHT22;41307;53.142;6.430;2022-10-19T02:16:49;11.10;99.90
55436;DHT22;41307;53.142;6.430;2022-10-19T02:19:17;10.90;99.90
55436;DHT22;41307;53.142;6.430;2022-10-19T02:21:44;12.00;99.90
55436;DHT22;41307;53.142;6.430;2022-10-19T02:24:10;10.90;99.90
55436;DHT22;41307;53.142;6.430;2022-10-19T02:26:37;12.00;99.90
55436;DHT22;41307;53.142;6.430;2022-10-19T02:29:03;10.90;99.90
55436;DHT22;41307;53.142;6.430;2022-10-19T02:31:29;11.60;99.90
55436;DHT22;41307;53.142;6.430;2022-10-19T02:33:55;10.80;99.90
55436;DHT22;41307;53.142;6.430;2022-10-19T02:36:21;10.80;99.90
55436;DHT22;41307;53.142;6.430;2022-10-19T02:38:46;11.40;99.90
55436;DHT22;41307;53.142;6.430;2022-10-19T02:41:35;11.20;99.90
55436;DHT22;41307;53.142;6.430;2022-10-19T02:44:19;10.80;99.90
55436;DHT22;41307;53.142;6.430;2022-10-19T02:47:16;10.80;99.90
55436;DHT22;41307;53.142;6.430;2022-10-19T02:49:41;10.80;99.90
55436;DHT22;41307;53.142;6.430;2022-10-19T02:52:09;11.70;99.90
55436;DHT22;41307;53.142;6.430;2022-10-19T02:54:36;11.30;99.90
55436;DHT22;41307;53.142;6.430;2022-10-19T02:57:16;11.80;99.90
55436;DHT22;41307;53.142;6.430;2022-10-19T02:59:42;10.70;99.90
55436;DHT22;41307;53.142;6.430;2022-10-19T03:02:08;10.70;99.90
55436;DHT22;41307;53.142;6.430;2022-10-19T03:04:34;10.90;99.90
55436;DHT22;41307;53.142;6.430;2022-10-19T03:07:00;10.50;99.90
55436;DHT22;41307;53.142;6.430;2022-10-19T03:09:25;10.50;99.90
55436;DHT22;41307;53.142;6.430;2022-10-19T03:11:51;10.40;99.90
55436;DHT22;41307;53.142;6.430;2022-10-19T03:14:17;10.40;99.90
55436;DHT22;41307;53.142;6.430;2022-10-19T03:16:42;10.30;99.90
55436;DHT22;41307;53.142;6.430;2022-10-19T03:19:08;10.70;99.90
55436;DHT22;41307;53.142;6.430;2022-10-19T03:21:34;10.20;99.90
55436;DHT22;41307;53.142;6.430;2022-10-19T03:24:00;10.20;99.90
55436;DHT22;41307;53.142;6.430;2022-10-19T03:26:26;10.60;99.90
55436;DHT22;41307;53.142;6.430;2022-10-19T03:28:51;10.50;99.90
55436;DHT22;41307;53.142;6.430;2022-10-19T03:31:17;10.10;99.90
55436;DHT22;41307;53.142;6.430;2022-10-19T03:33:43;10.00;99.90
55436;DHT22;41307;53.142;6.430;2022-10-19T03:36:22;11.00;99.90
55436;DHT22;41307;53.142;6.430;2022-10-19T03:38:52;9.90;99.90
55436;DHT22;41307;53.142;6.430;2022-10-19T03:41:20;9.80;99.90
55436;DHT22;41307;53.142;6.430;2022-10-19T03:43:46;10.80;99.90
55436;DHT22;41307;53.142;6.430;2022-10-19T03:46:12;11.20;99.90
55436;DHT22;41307;53.142;6.430;2022-10-19T03:48:37;10.10;99.90
55436;DHT22;41307;53.142;6.430;2022-10-19T03:51:09;9.80;99.90
55436;DHT22;41307;53.142;6.430;2022-10-19T03:53:35;9.80;99.90
55436;DHT22;41307;53.142;6.430;2022-10-19T03:56:06;9.80;99.90
55436;DHT22;41307;53.142;6.430;2022-10-19T03:58:34;9.80;99.90
55436;DHT22;41307;53.142;6.430;2022-10-19T04:01:00;9.90;99.90
55436;DHT22;41307;53.142;6.430;2022-10-19T04:03:26;9.80;99.90
55436;DHT22;41307;53.142;6.430;2022-10-19T04:05:52;10.10;99.90
55436;DHT22;41307;53.142;6.430;2022-10-19T04:08:18;9.90;99.90
55436;DHT22;41307;53.142;6.430;2022-10-19T04:10:44;10.70;99.90
55436;DHT22;41307;53.142;6.430;2022-10-19T04:13:09;10.60;99.90
55436;DHT22;41307;53.142;6.430;2022-10-19T04:15:35;9.90;99.90
55436;DHT22;41307;53.142;6.430;2022-10-19T04:18:01;9.90;99.90
55436;DHT22;41307;53.142;6.430;2022-10-19T04:20:27;9.90;99.90
55436;DHT22;41307;53.142;6.430;2022-10-19T04:22:52;11.40;99.90
55436;DHT22;41307;53.142;6.430;2022-10-19T04:25:18;10.50;99.90
55436;DHT22;41307;53.142;6.430;2022-10-19T04:27:44;10.00;99.90
55436;DHT22;41307;53.142;6.430;2022-10-19T04:30:10;10.00;99.90
55436;DHT22;41307;53.142;6.430;2022-10-19T04:32:36;10.00;99.90
55436;DHT22;41307;53.142;6.430;2022-10-19T04:35:02;10.00;99.90
55436;DHT22;41307;53.142;6.430;2022-10-19T04:37:27;10.10;99.90
55436;DHT22;41307;53.142;6.430;2022-10-19T04:39:53;10.00;99.90
55436;DHT22;41307;53.142;6.430;2022-10-19T04:42:19;10.00;99.90
55436;DHT22;41307;53.142;6.430;2022-10-19T04:44:44;10.00;99.90
55436;DHT22;41307;53.142;6.430;2022-10-19T04:47:10;10.40;99.90
55436;DHT22;41307;53.142;6.430;2022-10-19T04:49:36;11.10;99.90
55436;DHT22;41307;53.142;6.430;2022-10-19T04:52:01;10.00;99.90
55436;DHT22;41307;53.142;6.430;2022-10-19T04:54:27;10.00;99.90
55436;DHT22;41307;53.142;6.430;2022-10-19T04:56:53;10.80;99.90
55436;DHT22;41307;53.142;6.430;2022-10-19T04:59:18;10.90;99.90
55436;DHT22;41307;53.142;6.430;2022-10-19T05:01:44;10.40;99.90
55436;DHT22;41307;53.142;6.430;2022-10-19T05:04:10;10.30;99.90
55436;DHT22;41307;53.142;6.430;2022-10-19T05:06:36;10.10;99.90
55436;DHT22;41307;53.142;6.430;2022-10-19T05:09:02;10.00;99.90
55436;DHT22;41307;53.142;6.430;2022-10-19T05:11:28;10.40;99.90
55436;DHT22;41307;53.142;6.430;2022-10-19T05:13:55;10.10;99.90
55436;DHT22;41307;53.142;6.430;2022-10-19T05:16:22;10.10;99.90
55436;DHT22;41307;53.142;6.430;2022-10-19T05:18:50;10.40;99.90
55436;DHT22;41307;53.142;6.430;2022-10-19T05:21:17;10.40;99.90
55436;DHT22;41307;53.142;6.430;2022-10-19T05:23:43;10.50;99.90
55436;DHT22;41307;53.142;6.430;2022-10-19T05:26:12;10.10;99.90
55436;DHT22;41307;53.142;6.430;2022-10-19T05:28:38;10.20;99.90
55436;DHT22;41307;53.142;6.430;2022-10-19T05:31:09;10.20;99.90
55436;DHT22;41307;53.142;6.430;2022-10-19T05:33:35;10.20;99.90
55436;DHT22;41307;53.142;6.430;2022-10-19T05:36:21;10.20;99.90
55436;DHT22;41307;53.142;6.430;2022-10-19T05:38:49;10.90;99.90
55436;DHT22;41307;53.142;6.430;2022-10-19T05:41:17;10.20;99.90
55436;DHT22;41307;53.142;6.430;2022-10-19T05:43:43;10.60;99.90
55436;DHT22;41307;53.142;6.430;2022-10-19T05:46:15;10.20;99.90
55436;DHT22;41307;53.142;6.430;2022-10-19T05:48:44;10.20;99.90
55436;DHT22;41307;53.142;6.430;2022-10-19T05:51:13;10.30;99.90
55436;DHT22;41307;53.142;6.430;2022-10-19T05:53:39;10.30;99.90
55436;DHT22;41307;53.142;6.430;2022-10-19T05:56:07;10.30;99.90
55436;DHT22;41307;53.142;6.430;2022-10-19T05:58:34;10.30;99.90
55436;DHT22;41307;53.142;6.430;2022-10-19T06:01:00;10.90;99.90
55436;DHT22;41307;53.142;6.430;2022-10-19T06:03:27;10.30;99.90
55436;DHT22;41307;53.142;6.430;2022-10-19T06:05:54;10.80;99.90
55436;DHT22;41307;53.142;6.430;2022-10-19T06:08:21;11.10;99.90
55436;DHT22;41307;53.142;6.430;2022-10-19T06:10:47;10.30;99.90
55436;DHT22;41307;53.142;6.430;2022-10-19T06:13:15;10.40;99.90
55436;DHT22;41307;53.142;6.430;2022-10-19T06:15:41;10.30;99.90
55436;DHT22;41307;53.142;6.430;2022-10-19T06:18:09;10.50;99.90
55436;DHT22;41307;53.142;6.430;2022-10-19T06:20:39;10.40;99.90
55436;DHT22;41307;53.142;6.430;2022-10-19T06:23:06;10.40;99.90
55436;DHT22;41307;53.142;6.430;2022-10-19T06:25:35;10.50;99.90
55436;DHT22;41307;53.142;6.430;2022-10-19T06:28:02;10.40;99.90
55436;DHT22;41307;53.142;6.430;2022-10-19T06:30:27;10.40;99.90
55436;DHT22;41307;53.142;6.430;2022-10-19T06:32:53;10.50;99.90
55436;DHT22;41307;53.142;6.430;2022-10-19T06:35:19;10.50;99.90
55436;DHT22;41307;53.142;6.430;2022-10-19T06:37:45;10.60;99.90
55436;DHT22;41307;53.142;6.430;2022-10-19T06:40:11;11.20;99.90
55436;DHT22;41307;53.142;6.430;2022-10-19T06:42:37;10.50;99.90
55436;DHT22;41307;53.142;6.430;2022-10-19T06:45:12;11.20;99.90
55436;DHT22;41307;53.142;6.430;2022-10-19T06:47:38;10.50;99.90
55436;DHT22;41307;53.142;6.430;2022-10-19T06:50:05;11.40;99.90
55436;DHT22;41307;53.142;6.430;2022-10-19T06:52:31;10.50;99.90
55436;DHT22;41307;53.142;6.430;2022-10-19T06:54:57;10.60;99.90
55436;DHT22;41307;53.142;6.430;2022-10-19T06:57:23;10.60;99.90
55436;DHT22;41307;53.142;6.430;2022-10-19T06:59:49;10.60;99.90
55436;DHT22;41307;53.142;6.430;2022-10-19T07:02:14;10.60;99.90
55436;DHT22;41307;53.142;6.430;2022-10-19T07:04:40;10.70;99.90
55436;DHT22;41307;53.142;6.430;2022-10-19T07:07:06;10.60;99.90
55436;DHT22;41307;53.142;6.430;2022-10-19T07:09:32;10.70;99.90
55436;DHT22;41307;53.142;6.430;2022-10-19T07:11:58;11.20;99.90
55436;DHT22;41307;53.142;6.430;2022-10-19T07:14:23;11.10;99.90
55436;DHT22;41307;53.142;6.430;2022-10-19T07:16:50;10.80;99.90
55436;DHT22;41307;53.142;6.430;2022-10-19T07:19:16;10.90;99.90
55436;DHT22;41307;53.142;6.430;2022-10-19T07:21:42;11.00;99.90
55436;DHT22;41307;53.142;6.430;2022-10-19T07:24:09;11.10;99.90
55436;DHT22;41307;53.142;6.430;2022-10-19T07:26:35;11.40;99.90
55436;DHT22;41307;53.142;6.430;2022-10-19T07:29:01;11.10;99.90
55436;DHT22;41307;53.142;6.430;2022-10-19T07:31:28;11.20;99.90
55436;DHT22;41307;53.142;6.430;2022-10-19T07:33:59;11.20;99.90
55436;DHT22;41307;53.142;6.430;2022-10-19T07:36:27;11.30;99.90
55436;DHT22;41307;53.142;6.430;2022-10-19T07:38:53;11.40;99.90
55436;DHT22;41307;53.142;6.430;2022-10-19T07:41:20;11.40;99.90
55436;DHT22;41307;53.142;6.430;2022-10-19T07:43:47;12.60;99.90
55436;DHT22;41307;53.142;6.430;2022-10-19T07:46:16;11.50;99.90
55436;DHT22;41307;53.142;6.430;2022-10-19T07:48:42;11.60;99.90
55436;DHT22;41307;53.142;6.430;2022-10-19T07:51:08;11.60;99.90
55436;DHT22;41307;53.142;6.430;2022-10-19T07:53:36;11.60;99.90
55436;DHT22;41307;53.142;6.430;2022-10-19T07:56:11;11.70;99.90
55436;DHT22;41307;53.142;6.430;2022-10-19T07:58:37;11.70;99.90
55436;DHT22;41307;53.142;6.430;2022-10-19T08:03:30;11.70;99.90
55436;DHT22;41307;53.142;6.430;2022-10-19T08:06:07;11.80;99.90
55436;DHT22;41307;53.142;6.430;2022-10-19T08:08:33;11.90;99.90
55436;DHT22;41307;53.142;6.430;2022-10-19T08:13:42;12.00;99.90
55436;DHT22;41307;53.142;6.430;2022-10-19T08:18:56;12.10;99.90
55436;DHT22;41307;53.142;6.430;2022-10-19T08:21:23;12.20;99.90
55436;DHT22;41307;53.142;6.430;2022-10-19T08:23:49;12.20;99.90
55436;DHT22;41307;53.142;6.430;2022-10-19T08:26:15;12.50;99.90
55436;DHT22;41307;53.142;6.430;2022-10-19T08:28:41;12.30;99.90
55436;DHT22;41307;53.142;6.430;2022-10-19T08:31:14;12.30;99.90
55436;DHT22;41307;53.142;6.430;2022-10-19T08:33:40;12.30;99.90
55436;DHT22;41307;53.142;6.430;2022-10-19T08:36:07;12.40;99.90
55436;DHT22;41307;53.142;6.430;2022-10-19T08:38:35;12.40;99.90
55436;DHT22;41307;53.142;6.430;2022-10-19T08:49:48;12.60;99.90
55436;DHT22;41307;53.142;6.430;2022-10-19T08:52:20;12.90;99.90
55436;DHT22;41307;53.142;6.430;2022-10-19T08:55:09;12.70;99.90
55436;DHT22;41307;53.142;6.430;2022-10-19T09:00:39;12.80;99.90
55436;DHT22;41307;53.142;6.430;2022-10-19T09:06:15;12.90;99.90
55436;DHT22;41307;53.142;6.430;2022-10-19T09:08:48;12.90;99.90
55436;DHT22;41307;53.142;6.430;2022-10-19T09:11:16;12.90;99.90
55436;DHT22;41307;53.142;6.430;2022-10-19T09:13:46;12.90;99.90
55436;DHT22;41307;53.142;6.430;2022-10-19T09:16:17;13.00;99.90
55436;DHT22;41307;53.142;6.430;2022-10-19T09:18:43;13.00;99.90
55436;DHT22;41307;53.142;6.430;2022-10-19T09:21:19;13.10;99.90
55436;DHT22;41307;53.142;6.430;2022-10-19T09:24:03;13.20;99.90
55436;DHT22;41307;53.142;6.430;2022-10-19T09:26:32;13.20;99.90
55436;DHT22;41307;53.142;6.430;2022-10-19T09:29:08;13.30;99.90
55436;DHT22;41307;53.142;6.430;2022-10-19T09:31:39;13.30;99.90
55436;DHT22;41307;53.142;6.430;2022-10-19T09:34:24;13.30;99.90
55436;DHT22;41307;53.142;6.430;2022-10-19T09:36:55;13.20;99.90
55436;DHT22;41307;53.142;6.430;2022-10-19T09:39:23;13.20;99.90
55436;DHT22;41307;53.142;6.430;2022-10-19T09:41:54;13.20;99.90
55436;DHT22;41307;53.142;6.430;2022-10-19T09:44:22;13.30;99.90
55436;DHT22;41307;53.142;6.430;2022-10-19T09:49:41;13.20;99.90
55436;DHT22;41307;53.142;6.430;2022-10-19T09:57:50;13.20;99.90
55436;DHT22;41307;53.142;6.430;2022-10-19T10:00:24;13.20;99.90
55436;DHT22;41307;53.142;6.430;2022-10-19T10:02:52;13.20;99.90
55436;DHT22;41307;53.142;6.430;2022-10-19T10:05:39;13.20;99.90
55436;DHT22;41307;53.142;6.430;2022-10-19T10:08:17;13.20;99.90
55436;DHT22;41307;53.142;6.430;2022-10-19T10:10:47;13.20;99.90
55436;DHT22;41307;53.142;6.430;2022-10-19T10:13:20;13.20;99.90
55436;DHT22;41307;53.142;6.430;2022-10-19T10:15:59;13.60;99.90
55436;DHT22;41307;53.142;6.430;2022-10-19T10:18:27;13.30;99.90
55436;DHT22;41307;53.142;6.430;2022-10-19T10:21:11;13.40;99.90
55436;DHT22;41307;53.142;6.430;2022-10-19T10:23:37;13.40;99.90
55436;DHT22;41307;53.142;6.430;2022-10-19T10:26:04;13.50;99.90
55436;DHT22;41307;53.142;6.430;2022-10-19T10:28:47;13.60;99.90
55436;DHT22;41307;53.142;6.430;2022-10-19T10:31:13;13.60;99.90
55436;DHT22;41307;53.142;6.430;2022-10-19T10:33:40;13.60;99.90
55436;DHT22;41307;53.142;6.430;2022-10-19T10:36:10;13.60;99.90
55436;DHT22;41307;53.142;6.430;2022-10-19T10:38:44;13.60;99.90
55436;DHT22;41307;53.142;6.430;2022-10-19T10:41:15;13.60;99.90
55436;DHT22;41307;53.142;6.430;2022-10-19T10:43:58;13.70;99.90
55436;DHT22;41307;53.142;6.430;2022-10-19T10:46:27;13.80;99.90
55436;DHT22;41307;53.142;6.430;2022-10-19T10:48:59;14.10;99.90
55436;DHT22;41307;53.142;6.430;2022-10-19T10:51:36;14.00;99.90
55436;DHT22;41307;53.142;6.430;2022-10-19T10:54:16;14.10;99.90
55436;DHT22;41307;53.142;6.430;2022-10-19T10:56:44;14.10;99.90
55436;DHT22;41307;53.142;6.430;2022-10-19T10:59:26;14.60;99.90
55436;DHT22;41307;53.142;6.430;2022-10-19T11:02:16;14.10;99.90
55436;DHT22;41307;53.142;6.430;2022-10-19T11:05:11;14.10;99.90
55436;DHT22;41307;53.142;6.430;2022-10-19T11:07:45;14.00;99.90
55436;DHT22;41307;53.142;6.430;2022-10-19T11:10:22;14.10;99.90
55436;DHT22;41307;53.142;6.430;2022-10-19T11:13:13;14.00;99.90
55436;DHT22;41307;53.142;6.430;2022-10-19T11:18:45;14.00;99.90
55436;DHT22;41307;53.142;6.430;2022-10-19T11:21:19;14.00;99.90
55436;DHT22;41307;53.142;6.430;2022-10-19T11:24:04;14.10;99.90
55436;DHT22;41307;53.142;6.430;2022-10-19T11:31:54;14.00;99.90
55436;DHT22;41307;53.142;6.430;2022-10-19T11:37:17;13.90;99.90
55436;DHT22;41307;53.142;6.430;2022-10-19T11:40:18;13.90;99.90
55436;DHT22;41307;53.142;6.430;2022-10-19T11:42:52;13.90;99.90
55436;DHT22;41307;53.142;6.430;2022-10-19T11:58:43;14.10;99.90
55436;DHT22;41307;53.142;6.430;2022-10-19T12:04:00;14.10;99.90
55436;DHT22;41307;53.142;6.430;2022-10-19T12:06:48;14.00;99.90
55436;DHT22;41307;53.142;6.430;2022-10-19T12:09:24;14.00;99.90
55436;DHT22;41307;53.142;6.430;2022-10-19T12:14:45;13.90;99.90
55436;DHT22;41307;53.142;6.430;2022-10-19T12:17:28;14.00;99.90
55436;DHT22;41307;53.142;6.430;2022-10-19T12:20:02;13.90;99.90
55436;DHT22;41307;53.142;6.430;2022-10-19T12:22:29;13.90;99.90
55436;DHT22;41307;53.142;6.430;2022-10-19T12:24:58;13.90;99.90
55436;DHT22;41307;53.142;6.430;2022-10-19T12:27:38;14.00;99.90
55436;DHT22;41307;53.142;6.430;2022-10-19T12:30:13;14.00;99.90
55436;DHT22;41307;53.142;6.430;2022-10-19T12:33:05;13.90;99.90
55436;DHT22;41307;53.142;6.430;2022-10-19T12:38:43;14.00;99.90
55436;DHT22;41307;53.142;6.430;2022-10-19T12:47:18;14.10;99.90
55436;DHT22;41307;53.142;6.430;2022-10-19T12:49:51;14.10;99.90
55436;DHT22;41307;53.142;6.430;2022-10-19T12:52:42;14.60;99.90
55436;DHT22;41307;53.142;6.430;2022-10-19T12:55:29;13.90;99.90
55436;DHT22;41307;53.142;6.430;2022-10-19T12:58:25;13.80;99.90
55436;DHT22;41307;53.142;6.430;2022-10-19T13:01:00;13.60;99.90
55436;DHT22;41307;53.142;6.430;2022-10-19T13:03:40;13.50;99.90
55436;DHT22;41307;53.142;6.430;2022-10-19T13:06:46;13.40;99.90
55436;DHT22;41307;53.142;6.430;2022-10-19T13:09:33;13.40;99.90
55436;DHT22;41307;53.142;6.430;2022-10-19T13:14:46;13.60;99.90
55436;DHT22;41307;53.142;6.430;2022-10-19T13:22:51;13.20;99.90
55436;DHT22;41307;53.142;6.430;2022-10-19T13:25:39;13.20;99.90
55436;DHT22;41307;53.142;6.430;2022-10-19T14:00:23;13.30;99.90
55436;DHT22;41307;53.142;6.430;2022-10-19T14:11:10;13.00;99.90
55436;DHT22;41307;53.142;6.430;2022-10-19T14:13:37;12.90;99.90
55436;DHT22;41307;53.142;6.430;2022-10-19T14:16:03;12.90;99.90
55436;DHT22;41307;53.142;6.430;2022-10-19T14:18:34;12.90;99.90
55436;DHT22;41307;53.142;6.430;2022-10-19T14:23:30;12.80;99.90
55436;DHT22;41307;53.142;6.430;2022-10-19T14:26:03;13.70;99.90
55436;DHT22;41307;53.142;6.430;2022-10-19T14:28:30;12.70;99.90
55436;DHT22;41307;53.142;6.430;2022-10-19T14:31:02;12.80;99.90
55436;DHT22;41307;53.142;6.430;2022-10-19T14:33:32;12.80;99.90
55436;DHT22;41307;53.142;6.430;2022-10-19T14:35:58;13.50;99.90
55436;DHT22;41307;53.142;6.430;2022-10-19T14:38:36;12.70;99.90
55436;DHT22;41307;53.142;6.430;2022-10-19T14:41:04;12.70;99.90
55436;DHT22;41307;53.142;6.430;2022-10-19T14:43:32;12.60;99.90
55436;DHT22;41307;53.142;6.430;2022-10-19T14:48:31;12.70;99.90
55436;DHT22;41307;53.142;6.430;2022-10-19T14:50:57;12.70;99.90
55436;DHT22;41307;53.142;6.430;2022-10-19T14:53:37;12.60;99.90
55436;DHT22;41307;53.142;6.430;2022-10-19T14:56:12;12.60;99.90
55436;DHT22;41307;53.142;6.430;2022-10-19T14:58:52;12.60;99.90
55436;DHT22;41307;53.142;6.430;2022-10-19T15:01:19;12.50;99.90
55436;DHT22;41307;53.142;6.430;2022-10-19T15:03:46;12.50;99.90
55436;DHT22;41307;53.142;6.430;2022-10-19T15:06:20;12.60;99.90
55436;DHT22;41307;53.142;6.430;2022-10-19T15:08:59;12.50;99.90
55436;DHT22;41307;53.142;6.430;2022-10-19T15:11:29;12.50;99.90
55436;DHT22;41307;53.142;6.430;2022-10-19T15:17:02;12.50;99.90
55436;DHT22;41307;53.142;6.430;2022-10-19T15:24:34;12.30;99.90
55436;DHT22;41307;53.142;6.430;2022-10-19T15:27:21;12.30;99.90
55436;DHT22;41307;53.142;6.430;2022-10-19T15:32:47;12.20;99.90
55436;DHT22;41307;53.142;6.430;2022-10-19T15:35:24;12.20;99.90
55436;DHT22;41307;53.142;6.430;2022-10-19T15:37:59;12.20;99.90
55436;DHT22;41307;53.142;6.430;2022-10-19T15:40:31;12.10;99.90
55436;DHT22;41307;53.142;6.430;2022-10-19T15:42:57;12.00;99.90
55436;DHT22;41307;53.142;6.430;2022-10-19T15:50:43;11.90;99.90
55436;DHT22;41307;53.142;6.430;2022-10-19T15:53:09;11.80;99.90
55436;DHT22;41307;53.142;6.430;2022-10-19T15:55:35;11.70;99.90
55436;DHT22;41307;53.142;6.430;2022-10-19T15:58:01;11.70;99.90
55436;DHT22;41307;53.142;6.430;2022-10-19T16:00:28;11.60;99.90
55436;DHT22;41307;53.142;6.430;2022-10-19T16:02:54;11.60;99.90
55436;DHT22;41307;53.142;6.430;2022-10-19T16:05:20;11.50;99.90
55436;DHT22;41307;53.142;6.430;2022-10-19T16:07:46;11.50;99.90
55436;DHT22;41307;53.142;6.430;2022-10-19T16:10:18;12.30;99.90
55436;DHT22;41307;53.142;6.430;2022-10-19T16:12:44;11.40;99.90
55436;DHT22;41307;53.142;6.430;2022-10-19T16:15:18;12.30;99.90
55436;DHT22;41307;53.142;6.430;2022-10-19T16:18:14;11.20;99.90
55436;DHT22;41307;53.142;6.430;2022-10-19T16:20:39;11.10;99.90
55436;DHT22;41307;53.142;6.430;2022-10-19T16:23:06;11.00;99.90
55436;DHT22;41307;53.142;6.430;2022-10-19T16:25:32;11.00;99.90
55436;DHT22;41307;53.142;6.430;2022-10-19T16:27:58;10.90;99.90
55436;DHT22;41307;53.142;6.430;2022-10-19T16:30:23;10.80;99.90
55436;DHT22;41307;53.142;6.430;2022-10-19T16:32:49;10.80;99.90
55436;DHT22;41307;53.142;6.430;2022-10-19T16:35:15;10.60;99.90
55436;DHT22;41307;53.142;6.430;2022-10-19T16:37:41;10.60;99.90
55436;DHT22;41307;53.142;6.430;2022-10-19T16:40:07;10.60;99.90
55436;DHT22;41307;53.142;6.430;2022-10-19T16:42:33;10.60;99.90
55436;DHT22;41307;53.142;6.430;2022-10-19T16:44:59;10.50;99.90
55436;DHT22;41307;53.142;6.430;2022-10-19T16:47:25;9.60;99.90
55436;DHT22;41307;53.142;6.430;2022-10-19T16:49:58;10.40;99.90
55436;DHT22;41307;53.142;6.430;2022-10-19T16:52:26;11.60;99.90
55436;DHT22;41307;53.142;6.430;2022-10-19T16:54:51;10.40;99.90
55436;DHT22;41307;53.142;6.430;2022-10-19T16:57:17;10.30;99.90
55436;DHT22;41307;53.142;6.430;2022-10-19T16:59:43;10.30;99.90
55436;DHT22;41307;53.142;6.430;2022-10-19T17:02:09;10.20;99.90
55436;DHT22;41307;53.142;6.430;2022-10-19T17:04:35;10.20;99.90
55436;DHT22;41307;53.142;6.430;2022-10-19T17:07:01;10.10;99.90
55436;DHT22;41307;53.142;6.430;2022-10-19T17:09:27;10.10;99.90
55436;DHT22;41307;53.142;6.430;2022-10-19T17:11:53;10.10;99.90
55436;DHT22;41307;53.142;6.430;2022-10-19T17:14:18;10.00;99.90
55436;DHT22;41307;53.142;6.430;2022-10-19T17:16:44;10.00;99.90
55436;DHT22;41307;53.142;6.430;2022-10-19T17:19:10;11.00;99.90
55436;DHT22;41307;53.142;6.430;2022-10-19T17:21:37;10.40;99.90
55436;DHT22;41307;53.142;6.430;2022-10-19T17:24:05;9.90;99.90
55436;DHT22;41307;53.142;6.430;2022-10-19T17:26:33;10.10;99.90
55436;DHT22;41307;53.142;6.430;2022-10-19T17:29:00;9.90;99.90
55436;DHT22;41307;53.142;6.430;2022-10-19T17:31:26;9.80;99.90
55436;DHT22;41307;53.142;6.430;2022-10-19T17:33:52;9.80;99.90
55436;DHT22;41307;53.142;6.430;2022-10-19T17:36:24;9.80;99.90
55436;DHT22;41307;53.142;6.430;2022-10-19T17:39:12;9.80;99.90
55436;DHT22;41307;53.142;6.430;2022-10-19T17:41:39;9.70;99.90
55436;DHT22;41307;53.142;6.430;2022-10-19T17:44:05;9.70;99.90
55436;DHT22;41307;53.142;6.430;2022-10-19T17:46:32;9.70;99.90
55436;DHT22;41307;53.142;6.430;2022-10-19T17:48:58;10.00;99.90
55436;DHT22;41307;53.142;6.430;2022-10-19T17:51:30;9.70;99.90
55436;DHT22;41307;53.142;6.430;2022-10-19T17:54:02;9.60;99.90
55436;DHT22;41307;53.142;6.430;2022-10-19T17:56:29;9.70;99.90
55436;DHT22;41307;53.142;6.430;2022-10-19T17:58:56;10.10;99.90
55436;DHT22;41307;53.142;6.430;2022-10-19T18:01:22;10.30;99.90
55436;DHT22;41307;53.142;6.430;2022-10-19T18:03:48;9.90;99.90
55436;DHT22;41307;53.142;6.430;2022-10-19T18:06:25;9.60;99.90
55436;DHT22;41307;53.142;6.430;2022-10-19T18:08:53;9.70;99.90
55436;DHT22;41307;53.142;6.430;2022-10-19T18:11:21;9.60;99.90
55436;DHT22;41307;53.142;6.430;2022-10-19T18:13:49;10.50;99.90
55436;DHT22;41307;53.142;6.430;2022-10-19T18:16:17;10.20;99.90
55436;DHT22;41307;53.142;6.430;2022-10-19T18:18:45;9.60;99.90
55436;DHT22;41307;53.142;6.430;2022-10-19T18:21:14;9.50;99.90
55436;DHT22;41307;53.142;6.430;2022-10-19T18:23:40;9.40;99.90
55436;DHT22;41307;53.142;6.430;2022-10-19T18:26:12;9.70;99.90
55436;DHT22;41307;53.142;6.430;2022-10-19T18:28:39;9.30;99.90
55436;DHT22;41307;53.142;6.430;2022-10-19T18:31:12;9.30;99.90
55436;DHT22;41307;53.142;6.430;2022-10-19T18:33:38;9.30;99.90